createdAt,value
2019-05-20T00:02:43.390Z,97.01
2019-05-20T00:13:17.214Z,94.96
2019-05-20T00:23:50.746Z,100.00
2019-05-20T00:34:34.749Z,100.00
2019-05-20T00:44:58.880Z,100.00
2019-05-20T00:55:40.450Z,100.00
2019-05-20T01:06:13.800Z,100.00
2019-05-20T01:16:47.324Z,100.00
2019-05-20T01:27:20.589Z,100.00
2019-05-20T01:37:53.505Z,100.00
2019-05-20T01:48:27.269Z,97.05
2019-05-20T01:59:00.281Z,99.99
2019-05-20T02:09:33.998Z,100.00
2019-05-20T02:20:07.860Z,100.00
2019-05-20T02:30:41.427Z,100.00
2019-05-20T02:41:15.147Z,100.00
2019-05-20T02:51:49.781Z,100.00
2019-05-20T03:02:23.263Z,99.62
2019-05-20T03:12:56.928Z,100.00
2019-05-20T03:23:30.374Z,100.00
2019-05-20T03:34:04.059Z,99.73
2019-05-20T03:44:37.628Z,95.39
2019-05-20T03:55:10.975Z,100.00
2019-05-20T04:05:44.488Z,96.90
2019-05-20T04:16:18.030Z,90.93
2019-05-20T04:26:51.715Z,87.84
2019-05-20T04:37:24.417Z,83.39
2019-05-20T04:47:57.288Z,85.34
2019-05-20T04:58:30.771Z,81.93
2019-05-20T05:09:04.482Z,79.65
2019-05-20T05:19:37.759Z,72.08
2019-05-20T05:30:11.593Z,68.89
2019-05-20T05:40:47.109Z,64.95
2019-05-20T05:51:20.572Z,63.42
2019-05-20T06:01:54.093Z,62.71
2019-05-20T06:12:27.635Z,58.83
2019-05-20T06:23:00.486Z,54.41
2019-05-20T06:33:33.745Z,51.71
2019-05-20T06:44:06.428Z,50.45
2019-05-20T06:54:39.857Z,50.20
2019-05-20T07:05:13.230Z,47.97
2019-05-20T07:15:46.836Z,46.01
2019-05-20T07:26:20.197Z,49.54
2019-05-20T07:37:03.099Z,47.14
2019-05-20T07:47:29.537Z,45.69
2019-05-20T07:58:05.937Z,44.98
2019-05-20T08:08:39.490Z,42.98
2019-05-20T08:19:12.976Z,35.31
2019-05-20T08:29:46.311Z,38.85
2019-05-20T08:40:19.789Z,43.37
2019-05-20T08:50:53.062Z,41.66
2019-05-20T09:01:26.770Z,41.26
2019-05-20T09:12:00.522Z,39.52
2019-05-20T09:22:34.068Z,40.90
2019-05-20T09:33:07.653Z,42.18
2019-05-20T09:43:41.082Z,41.59
2019-05-20T09:54:14.287Z,38.80
2019-05-20T10:04:47.892Z,42.74
2019-05-20T10:15:21.304Z,46.03
2019-05-20T10:25:54.794Z,44.61
2019-05-20T10:36:28.536Z,44.67
2019-05-20T10:47:02.214Z,63.79
2019-05-20T10:57:36.010Z,78.32
2019-05-20T11:08:09.291Z,77.30
2019-05-20T11:18:42.764Z,66.00
2019-05-20T11:29:16.248Z,61.77
2019-05-20T11:39:49.646Z,60.49
2019-05-20T11:50:23.489Z,61.04
2019-05-20T12:00:57.149Z,59.48
2019-05-20T12:11:30.940Z,64.27
2019-05-20T12:22:04.458Z,61.95
2019-05-20T12:32:37.978Z,81.05
2019-05-20T12:43:11.377Z,100.00
2019-05-20T12:53:45.018Z,100.00
2019-05-20T13:04:17.657Z,100.00
2019-05-20T13:14:50.994Z,100.00
2019-05-20T13:25:24.697Z,100.00
2019-05-20T13:35:58.334Z,100.00
2019-05-20T13:46:31.879Z,95.51
2019-05-20T13:57:05.160Z,85.03
2019-05-20T14:07:38.862Z,80.04
2019-05-20T14:18:13.567Z,70.46
2019-05-20T14:28:47.149Z,73.14
2019-05-20T14:39:21.296Z,73.80
2019-05-20T14:49:54.843Z,81.58
2019-05-20T15:00:30.446Z,91.78
2019-05-20T15:11:03.911Z,97.32
2019-05-20T15:21:37.769Z,100.00
2019-05-20T15:32:11.417Z,87.98
2019-05-20T15:42:44.192Z,83.04
2019-05-20T15:53:17.871Z,73.51
2019-05-20T16:03:51.670Z,73.29
2019-05-20T16:14:25.661Z,75.66
2019-05-20T16:24:58.437Z,83.27
2019-05-20T16:35:32.124Z,94.96
2019-05-20T16:46:05.553Z,94.98
2019-05-20T16:56:38.834Z,99.87
2019-05-20T17:07:12.576Z,100.00
2019-05-20T17:17:45.973Z,100.00
2019-05-20T17:28:19.473Z,100.00
2019-05-20T17:38:53.074Z,100.00
2019-05-20T17:49:26.571Z,100.00
2019-05-20T18:00:00.176Z,100.00
2019-05-20T18:10:33.712Z,100.00
2019-05-20T18:21:07.308Z,100.00
2019-05-20T18:31:40.941Z,100.00
2019-05-20T18:42:14.586Z,100.00
2019-05-20T18:52:48.423Z,100.00
2019-05-20T19:03:21.661Z,100.00
2019-05-20T19:13:54.690Z,100.00
2019-05-20T19:24:28.002Z,100.00
2019-05-20T19:35:01.591Z,100.00
2019-05-20T19:45:35.204Z,100.00
2019-05-20T19:56:08.821Z,100.00
2019-05-20T20:06:42.378Z,100.00
2019-05-20T20:17:15.971Z,100.00
2019-05-20T20:27:49.638Z,100.00
2019-05-20T20:38:23.086Z,100.00
2019-05-20T20:48:56.389Z,100.00
2019-05-20T20:59:29.198Z,100.00
2019-05-20T21:10:02.734Z,100.00
2019-05-20T21:20:36.297Z,100.00
2019-05-20T21:31:09.910Z,100.00
2019-05-20T21:41:43.299Z,100.00
2019-05-20T21:52:17.010Z,100.00
2019-05-20T22:02:49.726Z,100.00
2019-05-20T22:13:22.475Z,100.00
2019-05-20T22:23:58.184Z,100.00
2019-05-20T22:34:31.705Z,100.00
2019-05-20T22:45:05.316Z,100.00
2019-05-20T22:55:38.026Z,100.00
2019-05-20T23:06:11.585Z,100.00
2019-05-20T23:16:45.076Z,100.00
2019-05-20T23:27:18.476Z,100.00
2019-05-20T23:37:52.000Z,100.00
2019-05-20T23:48:25.851Z,100.00
2019-05-20T23:58:59.326Z,100.00
